Time;durP1;ratioP1;P1;durP2;ratioP2;P2;SDS_P1;SDS_P2;PMS_P1;PMS_P2;Temp;Humidity;BMP_temperature;BMP_pressure;BME280_temperature;BME280_humidity;BME280_pressure;Samples;Min_cycle;Max_cycle;Signal;HPM_P1;HPM_P2
2021/03/04 00:00:16;;;;;;;12.93;7.70;;;;;;;-0.14;76.84;99996.19;1806592;78;21119;-56
2021/03/04 00:02:44;;;;;;;11.93;6.13;;;;;;;-0.13;76.87;99995.31;1806698;78;21138;-55
2021/03/04 00:05:13;;;;;;;10.53;7.30;;;;;;;-0.14;76.92;99990.91;1778985;79;21107;-54
2021/03/04 00:07:41;;;;;;;9.70;5.93;;;;;;;-0.15;76.92;99989.13;1775868;79;21255;-55
2021/03/04 00:10:16;;;;;;;14.07;7.47;;;;;;;-0.20;77.05;99975.05;1779013;78;21345;-56
2021/03/04 00:12:44;;;;;;;14.17;7.23;;;;;;;-0.25;77.18;99979.00;1798698;77;21174;-58
2021/03/04 00:15:13;;;;;;;14.53;7.43;;;;;;;-0.28;77.31;99979.47;1774617;78;21740;-58
2021/03/04 00:17:44;;;;;;;16.37;7.87;;;;;;;-0.30;77.45;99973.29;1780294;78;21604;-55
2021/03/04 00:20:16;;;;;;;17.53;7.83;;;;;;;-0.30;77.60;99967.56;1783798;79;21396;-56
2021/03/04 00:22:43;;;;;;;13.33;8.60;;;;;;;-0.32;77.74;99964.03;1781377;78;21194;-59
2021/03/04 00:25:12;;;;;;;13.20;7.20;;;;;;;-0.30;77.85;99966.23;1811502;78;21163;-59
2021/03/04 00:27:39;;;;;;;16.73;8.13;;;;;;;-0.29;77.97;99961.39;1808259;78;21549;-57
2021/03/04 00:30:29;;;;;;;22.00;11.10;;;;;;;-0.26;78.13;99961.40;1785396;78;21171;-58
2021/03/04 00:32:56;;;;;;;19.97;11.10;;;;;;;-0.26;78.17;99953.91;1709253;82;23552;-57
2021/03/04 00:35:24;;;;;;;22.67;10.53;;;;;;;-0.25;78.33;99945.94;1695009;82;21241;-58
2021/03/04 00:37:51;;;;;;;19.90;10.50;;;;;;;-0.23;78.41;99940.65;1706379;82;21189;-57
2021/03/04 00:40:20;;;;;;;21.43;10.40;;;;;;;-0.24;78.54;99935.80;1702581;82;21221;-58
2021/03/04 00:42:47;;;;;;;23.30;10.53;;;;;;;-0.22;78.56;99931.83;1689011;82;22170;-58
2021/03/04 00:45:18;;;;;;;25.73;11.33;;;;;;;-0.22;78.63;99932.72;1711908;81;23583;-57
2021/03/04 00:47:47;;;;;;;25.10;11.60;;;;;;;-0.21;78.66;99931.83;1707432;82;21434;-58
2021/03/04 00:50:17;;;;;;;27.27;13.30;;;;;;;-0.20;78.74;99929.63;1710669;81;21164;-56
2021/03/04 00:52:44;;;;;;;20.57;12.10;;;;;;;-0.21;78.76;99929.19;1707200;81;21246;-59
2021/03/04 00:55:12;;;;;;;25.67;12.60;;;;;;;-0.19;78.87;99930.08;1710344;82;21682;-59
2021/03/04 00:57:39;;;;;;;25.13;13.43;;;;;;;-0.15;78.96;99922.55;1711141;82;21255;-57
2021/03/04 01:00:08;;;;;;;25.07;12.77;;;;;;;-0.11;78.94;99916.38;1710840;82;21181;-57
2021/03/04 01:02:35;;;;;;;21.33;11.17;;;;;;;-0.07;79.00;99910.18;1715297;82;21100;-56
2021/03/04 01:05:04;;;;;;;21.73;12.27;;;;;;;-0.07;78.99;99903.56;1712842;81;21456;-56
2021/03/04 01:07:32;;;;;;;24.73;12.53;;;;;;;-0.08;79.04;99900.48;1714994;82;21236;-56
2021/03/04 01:09:59;;;;;;;23.40;11.00;;;;;;;-0.07;79.17;99898.27;1712390;82;22812;-56
2021/03/04 01:12:27;;;;;;;23.03;11.73;;;;;;;-0.07;79.18;99886.80;1712467;82;21165;-56
2021/03/04 01:14:55;;;;;;;24.80;12.80;;;;;;;-0.09;79.25;99879.34;1714245;81;21204;-58
2021/03/04 01:17:24;;;;;;;23.00;12.00;;;;;;;-0.11;79.38;99878.02;1710475;82;21205;-59
2021/03/04 01:19:52;;;;;;;21.43;11.37;;;;;;;-0.13;79.46;99869.20;1713189;82;22620;-58
2021/03/04 01:22:19;;;;;;;24.17;11.50;;;;;;;-0.12;79.54;99866.99;1715138;81;21213;-57
2021/03/04 01:24:46;;;;;;;25.77;12.53;;;;;;;-0.09;79.58;99859.50;1710013;82;21168;-59
2021/03/04 01:27:14;;;;;;;20.13;10.60;;;;;;;-0.10;79.58;99855.09;1712608;82;21192;-57
2021/03/04 01:29:41;;;;;;;22.07;12.00;;;;;;;-0.11;79.69;99855.97;1711533;82;21572;-56
2021/03/04 01:32:08;;;;;;;20.30;10.87;;;;;;;-0.13;79.74;99845.39;1720269;81;21188;-58
2021/03/04 01:34:36;;;;;;;22.83;11.70;;;;;;;-0.15;79.88;99850.23;1716715;81;23310;-59
2021/03/04 01:37:03;;;;;;;23.20;12.60;;;;;;;-0.16;80.03;99844.06;1721094;81;21184;-56
2021/03/04 01:39:30;;;;;;;21.97;11.10;;;;;;;-0.14;80.11;99849.35;1715770;81;21168;-57
2021/03/04 01:41:59;;;;;;;24.93;11.83;;;;;;;-0.16;80.29;99840.09;1719227;81;21160;-57
2021/03/04 01:44:26;;;;;;;23.70;12.30;;;;;;;-0.14;80.35;99843.62;1715972;81;21140;-57
2021/03/04 01:46:53;;;;;;;26.40;13.83;;;;;;;-0.14;80.37;99838.77;1713235;81;21510;-57
2021/03/04 01:49:21;;;;;;;25.73;13.23;;;;;;;-0.13;80.40;99840.09;1717619;81;21985;-59
2021/03/04 01:51:48;;;;;;;22.93;13.13;;;;;;;-0.11;80.47;99826.42;1719518;81;21205;-56
2021/03/04 01:54:17;;;;;;;31.47;14.40;;;;;;;-0.06;80.60;99825.95;1715660;81;22692;-59
2021/03/04 01:56:45;;;;;;;30.20;14.47;;;;;;;-0.05;80.64;99826.38;1717739;81;21359;-58
2021/03/04 01:59:12;;;;;;;32.33;16.00;;;;;;;-0.06;80.68;99814.04;1721276;81;22821;-57
2021/03/04 02:01:39;;;;;;;29.70;14.20;;;;;;;-0.08;80.78;99810.52;1712964;81;21194;-59
2021/03/04 02:04:07;;;;;;;30.47;14.90;;;;;;;-0.06;80.90;99807.42;1718900;81;21201;-59
2021/03/04 02:06:40;;;;;;;29.77;14.23;;;;;;;-0.02;81.00;99794.63;1721265;81;21257;-57
2021/03/04 02:09:07;;;;;;;29.73;14.07;;;;;;;0.03;81.08;99784.45;1697828;82;21677;-57
2021/03/04 02:11:39;;;;;;;28.60;14.23;;;;;;;0.06;81.11;99776.50;1715122;81;22160;-57
2021/03/04 02:14:10;;;;;;;33.20;16.33;;;;;;;0.05;81.17;99780.91;1741422;80;21683;-58
2021/03/04 02:16:45;;;;;;;32.43;16.10;;;;;;;0.07;81.24;99771.65;1747938;80;21252;-57
2021/03/04 02:19:42;;;;;;;;;;;;;;;0.08;81.26;99772.09;1755044;80;21159;-57
2021/03/04 02:22:51;;;;;;;31.77;14.87;;;;;;;0.10;81.38;99763.67;1742739;80;20312;-56
2021/03/04 02:25:42;;;;;;;35.90;15.27;;;;;;;0.11;81.44;99764.11;1740880;80;21688;-60
2021/03/04 02:28:09;;;;;;;38.17;17.53;;;;;;;0.14;81.47;99764.98;1708124;80;22490;-61
2021/03/04 02:30:37;;;;;;;36.77;16.63;;;;;;;0.17;81.50;99758.80;1743218;80;21513;-60
2021/03/04 02:33:08;;;;;;;34.23;16.07;;;;;;;0.20;81.53;99755.67;1739450;80;21095;-58
2021/03/04 02:35:35;;;;;;;33.50;16.90;;;;;;;0.23;81.56;99758.31;1748797;80;21083;-57
2021/03/04 02:38:12;;;;;;;39.63;18.63;;;;;;;0.25;81.66;99749.04;1749479;80;22094;-61
2021/03/04 02:40:41;;;;;;;42.57;17.97;;;;;;;0.23;81.73;99742.42;1745730;80;21146;-58
2021/03/04 02:43:15;;;;;;;35.63;15.83;;;;;;;0.23;81.79;99733.16;1744658;80;21143;-60
2021/03/04 02:45:43;;;;;;;33.23;16.75;;;;;;;0.24;81.82;99729.63;1746695;80;21115;-57
2021/03/04 02:48:15;;;;;;;35.10;17.03;;;;;;;0.28;81.86;99720.75;1744235;80;21088;-58
2021/03/04 02:50:43;;;;;;;40.13;18.57;;;;;;;0.31;81.96;99715.89;1743980;80;21279;-58
2021/03/04 02:53:10;;;;;;;37.23;18.70;;;;;;;0.35;82.02;99714.52;1742215;80;21901;-57
2021/03/04 02:55:38;;;;;;;39.13;19.40;;;;;;;0.39;82.14;99707.44;1721954;80;21127;-57
2021/03/04 02:58:08;;;;;;;40.47;18.50;;;;;;;0.43;82.13;99707.83;1747004;80;21501;-58
2021/03/04 03:00:36;;;;;;;37.87;20.13;;;;;;;0.45;82.11;99695.91;1744175;80;21107;-58
2021/03/04 03:03:10;;;;;;;39.10;18.80;;;;;;;0.45;82.13;99692.81;1749179;80;21444;-58
2021/03/04 03:05:40;;;;;;;;;;;;;;;0.46;82.13;99683.98;1745198;80;21121;-60
2021/03/04 03:08:07;;;;;;;45.53;19.17;;;;;;;0.50;82.18;99680.43;1746719;80;20972;-58
2021/03/04 03:10:35;;;;;;;37.03;17.50;;;;;;;0.52;82.21;99684.36;1742205;80;21482;-60
2021/03/04 03:13:03;;;;;;;35.97;19.27;;;;;;;0.55;82.22;99675.08;1742691;80;21131;-60
2021/03/04 03:15:30;;;;;;;42.90;20.03;;;;;;;0.57;82.24;99666.23;1742234;80;22109;-57
2021/03/04 03:17:57;;;;;;;38.97;19.17;;;;;;;0.57;82.23;99667.56;1740009;80;21190;-59
2021/03/04 03:20:25;;;;;;;45.30;20.43;;;;;;;0.58;82.30;99658.72;1744608;80;21111;-58
2021/03/04 03:22:53;;;;;;;44.27;19.90;;;;;;;0.60;82.26;99660.00;1741715;80;21090;-58
2021/03/04 03:25:21;;;;;;;39.50;20.07;;;;;;;0.65;82.24;99668.80;1737154;80;21193;-57
2021/03/04 03:27:50;;;;;;;43.67;21.27;;;;;;;0.67;82.16;99655.98;1737323;80;21535;-59
2021/03/04 03:30:24;;;;;;;41.30;19.47;;;;;;;0.69;82.14;99654.17;1748058;80;21321;-58
2021/03/04 03:32:55;;;;;;;42.50;21.73;;;;;;;0.70;82.11;99647.98;1741033;80;21257;-59
2021/03/04 03:35:27;;;;;;;40.07;20.93;;;;;;;0.69;82.12;99642.70;1746468;80;21289;-59
2021/03/04 03:37:56;;;;;;;42.97;20.23;;;;;;;0.66;82.12;99632.16;1747936;80;21165;-58
2021/03/04 03:40:25;;;;;;;43.30;20.47;;;;;;;0.65;82.09;99625.09;1720769;81;21200;-59
2021/03/04 03:42:57;;;;;;;39.43;18.83;;;;;;;0.69;82.07;99622.83;1742789;79;21194;-58
2021/03/04 03:45:36;;;;;;;41.37;20.93;;;;;;;0.70;82.01;99624.59;1744071;80;21222;-59
2021/03/04 03:48:09;;;;;;;40.07;20.27;;;;;;;0.70;81.91;99620.61;1745277;80;21460;-61
2021/03/04 03:50:36;;;;;;;44.00;20.47;;;;;;;0.67;81.89;99617.58;1740613;80;21197;-58
2021/03/04 03:53:04;;;;;;;39.30;20.57;;;;;;;0.64;81.85;99616.27;1737146;80;21537;-60
2021/03/04 03:55:31;;;;;;;45.83;21.20;;;;;;;0.63;81.83;99608.33;1746275;80;21687;-60
2021/03/04 03:57:59;;;;;;;43.67;21.50;;;;;;;0.61;81.71;99596.42;1739991;80;21178;-59
2021/03/04 04:00:27;;;;;;;39.50;19.07;;;;;;;0.60;81.65;99596.44;1744390;80;21993;-58
2021/03/04 04:03:01;;;;;;;41.03;20.30;;;;;;;0.58;81.58;99595.16;1737612;80;21146;-61
2021/03/04 04:05:29;;;;;;;37.97;19.43;;;;;;;0.58;81.45;99585.89;1744771;80;21381;-60
2021/03/04 04:07:58;;;;;;;35.70;18.47;;;;;;;0.58;81.41;99582.36;1741028;80;21194;-61
2021/03/04 04:10:28;;;;;;;38.80;17.40;;;;;;;0.57;81.43;99572.66;1741417;80;21222;-59
2021/03/04 04:12:56;;;;;;;37.43;19.50;;;;;;;0.57;81.30;99565.59;1742336;80;21142;-59
2021/03/04 04:15:24;;;;;;;40.40;20.00;;;;;;;0.53;81.23;99559.00;1742909;80;21897;-57
2021/03/04 04:17:54;;;;;;;37.00;19.07;;;;;;;0.49;81.19;99552.00;1743599;80;21992;-57
2021/03/04 04:20:23;;;;;;;39.63;20.03;;;;;;;0.46;81.13;99542.30;1695343;80;21198;-58
2021/03/04 04:22:53;;;;;;;41.47;20.63;;;;;;;0.43;81.05;99534.38;1744368;80;21171;-57
2021/03/04 04:25:22;;;;;;;39.10;19.50;;;;;;;0.40;81.01;99534.88;1739419;80;21689;-60
2021/03/04 04:27:54;;;;;;;37.07;19.23;;;;;;;0.36;80.96;99530.05;1754861;78;21883;-59
2021/03/04 04:30:24;;;;;;;38.37;17.80;;;;;;;0.34;80.90;99523.92;1762827;78;21337;-59
2021/03/04 04:32:52;;;;;;;37.37;19.27;;;;;;;0.33;80.87;99512.90;1767229;78;21156;-57
2021/03/04 04:35:19;;;;;;;35.10;19.07;;;;;;;0.32;80.80;99509.81;1762084;78;21138;-59
2021/03/04 04:37:47;;;;;;;41.70;20.07;;;;;;;0.30;80.78;99518.22;1753809;78;21201;-60
2021/03/04 04:40:15;;;;;;;40.87;20.30;;;;;;;0.29;80.77;99510.72;1760572;78;21170;-59
2021/03/04 04:42:44;;;;;;;39.80;19.17;;;;;;;0.27;80.71;99516.91;1764850;78;21606;-59
2021/03/04 04:45:11;;;;;;;42.03;20.17;;;;;;;0.25;80.68;99499.75;1759061;78;21413;-58
2021/03/04 04:47:38;;;;;;;36.10;18.47;;;;;;;0.21;80.63;99501.98;1737254;78;21206;-60
2021/03/04 04:50:07;;;;;;;39.43;19.97;;;;;;;0.19;80.59;99500.23;1758728;78;21177;-60
2021/03/04 04:52:34;;;;;;;43.67;20.33;;;;;;;0.15;80.61;99490.59;1762614;78;21187;-59
2021/03/04 04:55:02;;;;;;;41.47;18.40;;;;;;;0.14;80.65;99495.45;1755372;78;22412;-60
2021/03/04 04:57:30;;;;;;;41.00;19.80;;;;;;;0.15;80.66;99498.53;1761572;78;21241;-59
2021/03/04 04:59:57;;;;;;;38.73;19.07;;;;;;;0.14;80.66;99496.33;1758497;78;21624;-59
2021/03/04 05:02:24;;;;;;;34.47;17.57;;;;;;;0.17;80.67;99497.59;1761107;78;21992;-60
2021/03/04 05:04:51;;;;;;;40.23;18.90;;;;;;;0.18;80.68;99488.77;1759856;78;21471;-59
2021/03/04 05:07:19;;;;;;;39.10;19.10;;;;;;;0.21;80.63;99481.25;1757989;78;21213;-59
2021/03/04 05:09:47;;;;;;;38.60;20.27;;;;;;;0.21;80.59;99475.52;1760219;78;21436;-60
2021/03/04 05:12:16;;;;;;;39.27;19.17;;;;;;;0.21;80.58;99478.61;1754720;78;21166;-60
2021/03/04 05:14:44;;;;;;;40.73;20.80;;;;;;;0.22;80.55;99471.09;1758869;78;21221;-60
2021/03/04 05:17:11;;;;;;;38.37;20.67;;;;;;;0.24;80.61;99468.00;1761489;78;21198;-59
2021/03/04 05:19:38;;;;;;;42.93;21.07;;;;;;;0.29;80.66;99470.13;1757473;79;21190;-60
2021/03/04 05:22:05;;;;;;;47.57;24.13;;;;;;;0.33;80.65;99467.45;1756585;79;22112;-61
2021/03/04 05:24:33;;;;;;;41.53;22.50;;;;;;;0.38;80.66;99458.11;1758720;79;21202;-61
2021/03/04 05:27:00;;;;;;;41.23;21.43;;;;;;;0.46;80.61;99460.66;1751168;79;21167;-61
2021/03/04 05:29:27;;;;;;;40.47;20.23;;;;;;;0.57;80.58;99452.14;1735103;80;21159;-61
2021/03/04 05:31:55;;;;;;;41.27;20.53;;;;;;;0.70;80.58;99446.66;1736962;80;21205;-60
2021/03/04 05:34:22;;;;;;;35.57;19.23;;;;;;;0.87;80.57;99440.24;1734141;80;21228;-60
2021/03/04 05:36:50;;;;;;;39.60;21.03;;;;;;;1.04;80.33;99436.45;1740574;80;21852;-60
2021/03/04 05:39:17;;;;;;;37.03;20.87;;;;;;;1.23;80.27;99437.05;1738892;80;21086;-61
2021/03/04 05:41:45;;;;;;;42.60;22.00;;;;;;;1.43;80.02;99427.00;1739080;80;21148;-59
2021/03/04 05:44:12;;;;;;;44.20;22.40;;;;;;;1.61;79.68;99424.94;1739421;80;21681;-59
2021/03/04 05:46:39;;;;;;;42.40;20.90;;;;;;;1.78;79.34;99426.40;1737866;80;21167;-59
2021/03/04 05:49:06;;;;;;;36.33;18.20;;;;;;;1.95;79.09;99413.27;1746784;80;21139;-60
2021/03/04 05:51:39;;;;;;;41.17;21.73;;;;;;;2.10;78.72;99416.95;1731155;80;21155;-58
2021/03/04 05:54:06;;;;;;;41.83;20.43;;;;;;;2.18;78.22;99415.02;1738498;80;21636;-60
2021/03/04 05:56:34;;;;;;;41.17;20.77;;;;;;;2.22;77.93;99408.27;1739367;80;21381;-59
2021/03/04 05:59:02;;;;;;;41.77;19.37;;;;;;;2.33;77.82;99404.52;1740306;80;21107;-59
2021/03/04 06:01:30;;;;;;;44.33;20.63;;;;;;;2.45;77.56;99407.81;1740783;80;21123;-58
2021/03/04 06:03:58;;;;;;;43.00;21.10;;;;;;;2.59;77.22;99402.20;1733286;80;20996;-60
2021/03/04 06:06:25;;;;;;;44.47;21.07;;;;;;;2.69;76.88;99397.11;1738752;80;21111;-59
2021/03/04 06:08:52;;;;;;;44.53;22.83;;;;;;;2.75;76.49;99398.74;1737328;80;21422;-59
2021/03/04 06:11:19;;;;;;;43.97;21.77;;;;;;;2.77;76.15;99399.14;1737098;80;21184;-59
2021/03/04 06:13:47;;;;;;;44.30;23.33;;;;;;;2.83;76.09;99391.47;1739615;80;21871;-59
2021/03/04 06:16:14;;;;;;;38.30;21.57;;;;;;;2.87;75.88;99387.39;1731376;80;21198;-60
2021/03/04 06:18:44;;;;;;;42.93;21.43;;;;;;;2.93;75.60;99391.23;1738852;80;21514;-58
2021/03/04 06:21:25;;;;;;;44.27;22.10;;;;;;;2.97;75.31;99370.33;1739654;80;21205;-60
2021/03/04 06:23:55;;;;;;;40.10;19.77;;;;;;;3.00;75.21;99369.36;1733454;80;21198;-60
2021/03/04 06:26:37;;;;;;;41.10;22.30;;;;;;;3.06;75.09;99368.36;1731901;80;21198;-61
2021/03/04 06:29:22;;;;;;;39.47;21.17;;;;;;;3.11;74.86;99357.14;1762211;79;21588;-57
2021/03/04 06:34:32;;;;;;;47.13;22.87;;;;;;;3.23;74.56;99349.71;1822323;75;26681;-60
2021/03/04 06:37:03;;;;;;;44.57;24.20;;;;;;;3.23;74.44;99346.21;1791960;77;21202;-58
2021/03/04 06:39:46;;;;;;;40.80;21.67;;;;;;;3.23;74.32;99339.56;1794649;77;23359;-60
2021/03/04 06:42:14;;;;;;;44.07;21.90;;;;;;;3.23;74.35;99334.24;1774911;77;21184;-57
2021/03/04 06:44:45;;;;;;;40.10;21.47;;;;;;;3.28;74.26;99338.98;1764281;78;21456;-60
2021/03/04 06:47:25;;;;;;;44.10;21.67;;;;;;;3.32;74.21;99331.31;1772308;78;21515;-60
2021/03/04 06:49:56;;;;;;;42.10;23.03;;;;;;;3.39;74.13;99332.94;1773753;78;20968;-58
2021/03/04 06:52:28;;;;;;;39.13;20.93;;;;;;;3.45;73.98;99324.78;1767147;78;21985;-58
2021/03/04 06:55:13;;;;;;;45.73;22.20;;;;;;;3.53;73.96;99317.47;1767999;79;21253;-57
2021/03/04 06:57:41;;;;;;;42.03;22.90;;;;;;;3.61;73.69;99312.81;1768576;78;20960;-59
2021/03/04 07:00:19;;;;;;;39.60;21.03;;;;;;;3.68;73.57;99305.52;1773553;78;21519;-57
2021/03/04 07:02:57;;;;;;;40.33;21.00;;;;;;;3.73;73.35;99306.29;1769994;78;21250;-58
2021/03/04 07:05:25;;;;;;;39.40;21.07;;;;;;;3.79;73.19;99299.00;1771620;78;22373;-57
2021/03/04 07:07:54;;;;;;;46.00;21.97;;;;;;;3.86;72.99;99292.16;1759630;78;21180;-60
2021/03/04 07:10:25;;;;;;;37.60;21.03;;;;;;;3.95;72.74;99290.11;1768723;78;21482;-60
2021/03/04 07:12:52;;;;;;;39.23;21.40;;;;;;;4.05;72.64;99286.27;1767233;78;21095;-60
2021/03/04 07:15:21;;;;;;;37.50;21.23;;;;;;;4.15;72.32;99280.22;1767580;78;21168;-58
2021/03/04 07:17:50;;;;;;;39.10;21.97;;;;;;;4.24;72.22;99281.28;1763111;78;22590;-58
2021/03/04 07:20:19;;;;;;;39.20;20.90;;;;;;;4.32;71.83;99272.59;1774040;78;21142;-59
2021/03/04 07:22:49;;;;;;;38.47;22.37;;;;;;;4.40;71.78;99272.35;1762352;79;21170;-58
2021/03/04 07:25:16;;;;;;;40.87;21.87;;;;;;;4.49;71.60;99282.27;1769209;79;21415;-59
2021/03/04 07:27:43;;;;;;;45.80;22.33;;;;;;;4.55;71.33;99271.41;1760680;79;21580;-59
2021/03/04 07:30:12;;;;;;;40.30;20.47;;;;;;;4.67;70.91;99277.28;1763690;78;21186;-59
2021/03/04 07:32:41;;;;;;;34.77;19.17;;;;;;;4.77;70.58;99266.70;1768197;78;21181;-59
2021/03/04 07:35:13;;;;;;;35.90;20.13;;;;;;;4.87;70.34;99258.82;1762148;78;21147;-59
2021/03/04 07:37:41;;;;;;;29.73;18.80;;;;;;;4.98;70.16;99251.80;1773900;78;21193;-60
2021/03/04 07:40:12;;;;;;;33.63;19.57;;;;;;;5.11;69.88;99249.12;1763908;78;21198;-61
2021/03/04 07:42:39;;;;;;;34.67;19.00;;;;;;;5.21;69.42;99244.75;1771241;78;21184;-62
2021/03/04 07:45:15;;;;;;;34.60;19.30;;;;;;;5.33;68.76;99232.80;1769978;78;21178;-64
2021/03/04 07:47:42;;;;;;;36.47;19.97;;;;;;;5.41;68.66;99225.84;1766610;78;21221;-61
2021/03/04 07:50:21;;;;;;;36.10;18.30;;;;;;;5.51;68.38;99227.27;1769467;78;21084;-62
2021/03/04 07:52:48;;;;;;;29.63;17.13;;;;;;;5.58;68.13;99217.64;1767058;78;21095;-61
2021/03/04 07:55:16;;;;;;;35.57;19.30;;;;;;;5.67;67.66;99214.63;1740953;79;21190;-60
2021/03/04 07:57:44;;;;;;;32.77;18.33;;;;;;;5.74;67.35;99207.72;1765168;78;21252;-59
2021/03/04 08:00:14;;;;;;;29.57;16.23;;;;;;;5.80;66.96;99207.02;1769429;78;21179;-60
2021/03/04 08:02:44;;;;;;;33.33;18.47;;;;;;;5.85;66.79;99198.39;1764623;79;21170;-62
2021/03/04 08:05:18;;;;;;;32.60;18.37;;;;;;;5.90;66.42;99204.91;1764877;79;21175;-60
2021/03/04 08:07:47;;;;;;;30.93;17.63;;;;;;;5.95;66.19;99201.63;1768458;78;21231;-61
2021/03/04 08:10:18;;;;;;;33.73;18.17;;;;;;;6.03;66.08;99199.52;1766041;79;21290;-60
2021/03/04 08:12:54;;;;;;;27.83;17.57;;;;;;;6.11;65.85;99192.08;1769806;78;21155;-61
2021/03/04 08:15:40;;;;;;;32.37;18.57;;;;;;;6.18;65.56;99184.22;1776062;78;21163;-62
2021/03/04 08:18:22;;;;;;;28.43;18.07;;;;;;;6.24;65.40;99174.62;1769479;78;21126;-62
2021/03/04 08:20:51;;;;;;;32.03;18.47;;;;;;;6.32;65.10;99164.95;1770837;78;21477;-61
2021/03/04 08:23:19;;;;;;;29.47;16.73;;;;;;;6.35;64.90;99169.72;1767582;78;21186;-61
2021/03/04 08:25:47;;;;;;;30.63;17.17;;;;;;;6.40;64.72;99162.37;1770004;78;21115;-62
2021/03/04 08:28:27;;;;;;;30.47;18.03;;;;;;;6.44;64.43;99164.47;1773801;78;21122;-60
2021/03/04 08:31:06;;;;;;;34.33;17.53;;;;;;;6.51;64.49;99153.05;1868128;75;22026;-62
2021/03/04 08:33:34;;;;;;;31.40;19.97;;;;;;;6.53;63.67;99145.84;1842184;76;20905;-62
2021/03/04 08:36:02;;;;;;;37.60;21.00;;;;;;;6.56;63.99;99144.36;1844340;76;21257;-62
2021/03/04 08:38:39;;;;;;;30.10;17.23;;;;;;;6.60;64.06;99137.50;1843719;76;21410;-62
2021/03/04 08:41:06;;;;;;;26.67;16.13;;;;;;;6.66;63.91;99138.56;1782770;78;20960;-63
2021/03/04 08:43:33;;;;;;;30.43;16.37;;;;;;;6.76;63.77;99133.70;1778215;78;21440;-63
2021/03/04 08:46:03;;;;;;;30.70;18.60;;;;;;;6.88;63.36;99128.30;1757940;79;20968;-62
2021/03/04 08:48:30;;;;;;;29.33;17.20;;;;;;;6.98;63.25;99133.64;1755370;79;22598;-63
2021/03/04 08:51:03;;;;;;;29.47;17.17;;;;;;;7.08;62.99;99134.52;1786371;78;20937;-61
2021/03/04 08:53:32;;;;;;;30.63;19.17;;;;;;;7.18;62.66;99123.81;1780666;78;20972;-59
2021/03/04 08:56:02;;;;;;;29.13;16.87;;;;;;;7.28;62.40;99122.06;1779171;78;21469;-60
2021/03/04 08:58:35;;;;;;;29.83;18.47;;;;;;;7.34;61.97;99119.97;1782045;78;21085;-63
2021/03/04 09:01:04;;;;;;;30.20;18.83;;;;;;;7.39;61.97;99121.12;1756122;79;22135;-62
2021/03/04 09:03:38;;;;;;;28.60;17.27;;;;;;;7.44;61.75;99110.59;1757955;79;21141;-61
2021/03/04 09:06:07;;;;;;;32.60;18.87;;;;;;;7.51;61.65;99110.70;1757269;79;21431;-60
2021/03/04 09:08:38;;;;;;;30.43;18.27;;;;;;;7.55;61.22;99100.27;1757646;79;21718;-61
2021/03/04 09:11:07;;;;;;;32.20;18.57;;;;;;;7.58;61.19;99096.08;1756814;79;21098;-63
2021/03/04 09:13:35;;;;;;;28.17;17.93;;;;;;;7.65;61.27;99087.31;1755125;79;21268;-62
2021/03/04 09:18:43;;;;;;;32.47;18.30;;;;;;;7.78;60.43;99066.16;1838380;76;22702;-62
2021/03/04 09:21:12;;;;;;;26.10;15.87;;;;;;;7.77;60.25;99061.27;1801518;78;21171;-60
2021/03/04 09:23:39;;;;;;;25.13;16.60;;;;;;;7.81;60.40;99060.20;1799675;78;21589;-62
2021/03/04 09:26:08;;;;;;;29.60;18.43;;;;;;;7.88;60.42;99058.08;1798235;78;21226;-62
2021/03/04 09:28:38;;;;;;;28.97;18.57;;;;;;;7.96;60.00;99047.86;1803573;78;20990;-61
2021/03/04 09:31:14;;;;;;;29.33;16.93;;;;;;;8.04;59.82;99056.86;1799625;78;21167;-62
2021/03/04 09:33:43;;;;;;;29.57;17.77;;;;;;;8.11;59.45;99057.82;1801572;78;20976;-63
2021/03/04 09:36:17;;;;;;;34.53;19.13;;;;;;;8.20;59.18;99048.45;1801694;78;21285;-60
2021/03/04 09:38:52;;;;;;;33.97;19.80;;;;;;;8.27;58.87;99045.39;1796047;78;21041;-62
2021/03/04 09:41:22;;;;;;;35.37;20.27;;;;;;;8.33;58.53;99047.83;1798822;78;21615;-61
2021/03/04 09:44:03;;;;;;;32.47;19.33;;;;;;;8.40;58.44;99038.13;1740986;80;21181;-62
2021/03/04 09:46:41;;;;;;;31.47;19.23;;;;;;;8.44;57.89;99032.51;1798930;78;20973;-63
2021/03/04 09:49:12;;;;;;;29.80;19.53;;;;;;;8.48;57.52;99024.72;1800761;78;21202;-60
2021/03/04 09:51:42;;;;;;;32.37;20.20;;;;;;;8.49;57.57;99014.86;1745222;80;20984;-65
2021/03/04 09:54:09;;;;;;;26.23;18.27;;;;;;;8.52;57.61;99021.38;1800814;78;21487;-62
2021/03/04 09:56:38;;;;;;;30.70;19.00;;;;;;;8.55;57.45;99014.53;1791623;78;21670;-65
2021/03/04 09:59:06;;;;;;;28.70;18.20;;;;;;;8.59;57.32;99000.03;1796612;78;21568;-61
2021/03/04 10:01:35;;;;;;;33.47;21.30;;;;;;;8.63;57.10;98994.87;1747064;80;21217;-62
2021/03/04 10:04:07;;;;;;;34.33;20.40;;;;;;;8.64;56.71;98999.30;1799788;78;21198;-63
2021/03/04 10:06:38;;;;;;;34.50;22.23;;;;;;;8.62;57.07;98998.03;1800642;78;21177;-61
2021/03/04 10:09:07;;;;;;;33.07;19.97;;;;;;;8.67;57.25;98986.61;1798247;78;21099;-62
2021/03/04 10:11:38;;;;;;;32.87;20.70;;;;;;;8.76;57.29;98983.91;1749129;80;21242;-61
2021/03/04 10:14:11;;;;;;;35.07;21.47;;;;;;;8.84;57.12;98988.88;1800851;78;22275;-63
2021/03/04 10:16:39;;;;;;;31.97;20.73;;;;;;;8.89;56.63;98981.42;1802411;78;21214;-63
2021/03/04 10:19:08;;;;;;;31.42;19.12;;;;;;;8.90;56.58;98985.85;1743738;80;21186;-63
2021/03/04 10:21:35;;;;;;;31.97;20.25;;;;;;;8.93;56.58;98983.02;1794976;78;22256;-58
2021/03/04 10:24:04;;;;;;;31.77;19.67;;;;;;;8.95;56.42;98969.88;1801059;78;21159;-65
2021/03/04 10:26:31;;;;;;;28.12;18.50;;;;;;;9.00;56.16;98972.33;1798864;78;22074;-62
2021/03/04 10:28:58;;;;;;;34.60;21.23;;;;;;;9.03;56.02;98969.46;1802374;78;21143;-64
2021/03/04 10:31:25;;;;;;;32.63;19.75;;;;;;;9.02;55.72;98959.20;1795878;78;21188;-62
2021/03/04 10:33:53;;;;;;;29.35;18.52;;;;;;;9.03;55.92;98952.88;1800676;78;21201;-63
2021/03/04 10:36:21;;;;;;;30.83;18.57;;;;;;;9.07;55.84;98944.20;1794516;78;21134;-62
2021/03/04 10:38:48;;;;;;;29.25;19.12;;;;;;;9.10;55.54;98938.16;1798998;78;21831;-62
2021/03/04 10:41:15;;;;;;;35.70;20.37;;;;;;;9.13;55.33;98938.95;1798029;78;21219;-64
2021/03/04 10:43:42;;;;;;;33.50;19.92;;;;;;;9.17;55.37;98926.64;1795257;78;21182;-62
2021/03/04 10:46:09;;;;;;;29.20;18.70;;;;;;;9.20;55.43;98917.05;1794783;78;21848;-64
2021/03/04 10:48:37;;;;;;;30.68;21.25;;;;;;;9.26;55.63;98909.14;1801072;78;21683;-60
2021/03/04 10:51:04;;;;;;;32.07;20.90;;;;;;;9.34;55.30;98914.95;1798267;78;21374;-61
2021/03/04 10:53:32;;;;;;;33.18;21.97;;;;;;;9.37;55.19;98899.51;1797804;78;21147;-63
2021/03/04 10:55:59;;;;;;;27.93;17.65;;;;;;;9.40;55.27;98895.80;1745942;80;21603;-63
2021/03/04 10:58:26;;;;;;;31.33;20.15;;;;;;;9.43;55.32;98880.38;1797345;78;21225;-61
2021/03/04 11:00:53;;;;;;;32.75;20.75;;;;;;;9.48;55.30;98886.34;1743388;80;21194;-59
2021/03/04 11:03:21;;;;;;;29.23;19.87;;;;;;;9.55;55.01;98879.27;1797592;78;21448;-62
2021/03/04 11:05:49;;;;;;;29.00;18.85;;;;;;;9.56;54.62;98872.94;1799726;78;21579;-58
2021/03/04 11:08:17;;;;;;;31.73;18.75;;;;;;;9.55;54.70;98883.30;1797540;78;21186;-60
2021/03/04 11:10:47;;;;;;;29.82;19.27;;;;;;;9.55;54.78;98871.20;1797340;78;21171;-59
2021/03/04 11:13:16;;;;;;;29.85;20.55;;;;;;;9.56;54.88;98873.81;1798194;78;21860;-61
2021/03/04 11:15:44;;;;;;;27.93;20.08;;;;;;;9.60;54.91;98871.34;1802328;78;22739;-60
2021/03/04 11:18:11;;;;;;;28.55;19.07;;;;;;;9.65;54.92;98877.31;1725259;80;21773;-57
2021/03/04 11:20:39;;;;;;;33.55;20.25;;;;;;;9.71;54.88;98873.38;1703233;82;21210;-60
2021/03/04 11:23:06;;;;;;;32.35;20.02;;;;;;;9.76;54.66;98874.87;1719367;82;21573;-61
2021/03/04 11:25:33;;;;;;;32.20;18.90;;;;;;;9.79;54.36;98876.48;1702700;82;21191;-62
2021/03/04 11:28:01;;;;;;;29.77;18.52;;;;;;;9.80;54.12;98876.88;1694603;82;21241;-62
2021/03/04 11:30:28;;;;;;;34.98;20.55;;;;;;;9.77;53.71;98864.52;1717921;82;21319;-60
2021/03/04 11:32:56;;;;;;;30.65;18.30;;;;;;;9.73;53.74;98859.39;1704240;82;21191;-57
2021/03/04 11:35:27;;;;;;;25.75;17.65;;;;;;;9.68;53.69;98854.30;1720470;82;21139;-59
2021/03/04 11:37:55;;;;;;;28.57;18.82;;;;;;;9.65;53.98;98861.19;1735786;81;21442;-61
2021/03/04 11:40:23;;;;;;;27.80;18.15;;;;;;;9.59;53.71;98850.80;1731222;81;21211;-60